Time;durP1;ratioP1;P1;durP2;ratioP2;P2;SDS_P1;SDS_P2;PMS_P1;PMS_P2;Temp;Humidity;BMP_temperature;BMP_pressure;BME280_temperature;BME280_humidity;BME280_pressure;Samples;Min_cycle;Max_cycle;Signal;HPM_P1;HPM_P2
2022/12/21 06:17:30;;;;;;;3.13;0.70;;;10.80;99.90;;;;;;5153229;23;20454;-78
2022/12/21 06:19:57;;;;;;;2.55;1.00;;;10.80;99.90;;;;;;4885490;29;20053;-80
2022/12/21 06:22:24;;;;;;;2.33;1.13;;;10.80;99.90;;;;;;4892599;29;20078;-81
2022/12/21 06:24:50;;;;;;;3.83;1.00;;;10.80;99.90;;;;;;4891265;29;20132;-80
2022/12/21 06:27:17;;;;;;;4.68;1.13;;;10.80;99.90;;;;;;4896301;29;20064;-81
2022/12/21 06:29:44;;;;;;;3.40;1.38;;;10.80;99.90;;;;;;4893362;29;20175;-80
2022/12/21 06:32:11;;;;;;;4.88;0.85;;;10.80;99.90;;;;;;4892910;29;20048;-80
2022/12/21 06:34:37;;;;;;;3.60;1.10;;;10.80;99.90;;;;;;4888504;29;20479;-81
2022/12/21 06:37:04;;;;;;;4.43;1.00;;;10.80;99.90;;;;;;4886011;29;20057;-79
2022/12/21 06:39:31;;;;;;;2.05;1.10;;;10.80;99.90;;;;;;4895077;29;20120;-80
2022/12/21 06:41:57;;;;;;;5.03;1.50;;;10.90;99.90;;;;;;4893546;29;20053;-81
2022/12/21 06:44:24;;;;;;;3.15;1.00;;;10.90;99.90;;;;;;4890649;29;20053;-81
2022/12/21 06:46:51;;;;;;;2.95;0.70;;;10.80;99.90;;;;;;4884582;29;20053;-80
2022/12/21 06:49:18;;;;;;;2.33;0.77;;;10.90;99.90;;;;;;4886282;29;20495;-81
2022/12/21 06:51:44;;;;;;;3.55;0.70;;;10.90;99.90;;;;;;4894333;29;20059;-77
2022/12/21 06:54:11;;;;;;;1.35;0.70;;;10.90;99.90;;;;;;4889897;29;20052;-79
2022/12/21 06:56:38;;;;;;;2.75;0.93;;;10.90;99.90;;;;;;4881745;29;20051;-81
2022/12/21 06:59:05;;;;;;;0.88;0.65;;;10.90;99.90;;;;;;4888481;29;20059;-78
2022/12/21 07:01:35;;;;;;;1.15;0.68;;;10.90;99.90;;;;;;4894048;29;20048;-79
2022/12/21 07:04:02;;;;;;;2.42;0.98;;;11.00;99.90;;;;;;4888793;29;20099;-81
2022/12/21 07:06:30;;;;;;;3.28;0.70;;;11.00;99.90;;;;;;4891957;29;20073;-81
2022/12/21 07:08:58;;;;;;;1.77;0.82;;;11.10;99.90;;;;;;4893983;29;20056;-79
2022/12/21 07:11:27;;;;;;;1.85;0.90;;;11.10;99.90;;;;;;4895691;29;20056;-79
2022/12/21 07:13:54;;;;;;;3.90;0.70;;;11.10;99.90;;;;;;4898184;29;20077;-79
2022/12/21 07:16:21;;;;;;;2.58;0.90;;;11.10;99.90;;;;;;4888384;29;20136;-79
2022/12/21 07:18:49;;;;;;;2.83;0.90;;;11.20;99.90;;;;;;4891111;29;20128;-80
2022/12/21 07:21:19;;;;;;;2.55;0.80;;;11.30;99.90;;;;;;4908724;29;20056;-80
2022/12/21 07:23:46;;;;;;;6.80;1.20;;;11.30;99.90;;;;;;4889029;29;20060;-80
2022/12/21 07:26:16;;;;;;;1.92;0.80;;;11.30;99.90;;;;;;4893116;29;20045;-80
2022/12/21 07:28:43;;;;;;;3.65;1.10;;;11.30;99.90;;;;;;4887388;29;20419;-80
2022/12/21 07:31:13;;;;;;;1.60;0.73;;;11.20;99.90;;;;;;4888072;29;20045;-79
2022/12/21 07:33:40;;;;;;;0.73;0.60;;;11.30;99.90;;;;;;4894237;29;20142;-78
2022/12/21 07:36:08;;;;;;;1.25;0.70;;;11.30;99.90;;;;;;4895004;29;20060;-79
2022/12/21 07:38:37;;;;;;;2.85;0.98;;;11.30;99.90;;;;;;4896293;29;20081;-80
2022/12/21 07:41:06;;;;;;;2.20;1.00;;;11.20;99.90;;;;;;4906922;29;20057;-81
2022/12/21 07:43:34;;;;;;;2.05;1.08;;;11.20;99.90;;;;;;4888859;29;20140;-78
2022/12/21 07:46:02;;;;;;;3.45;0.95;;;11.20;99.90;;;;;;4895725;29;20104;-78
2022/12/21 07:48:29;;;;;;;5.25;1.30;;;11.10;99.90;;;;;;4887669;29;20078;-79
2022/12/21 07:50:57;;;;;;;5.15;1.35;;;11.10;99.90;;;;;;4895991;29;20052;-79
2022/12/21 07:53:24;;;;;;;3.53;1.45;;;11.10;99.90;;;;;;4887859;29;20471;-79
2022/12/21 07:55:51;;;;;;;5.28;1.33;;;11.10;99.90;;;;;;4891355;29;20100;-78
2022/12/21 07:58:17;;;;;;;2.97;1.38;;;11.10;99.90;;;;;;4887583;29;20156;-78
2022/12/21 08:00:45;;;;;;;2.58;1.38;;;11.10;99.90;;;;;;4891050;29;20059;-78
2022/12/21 08:03:12;;;;;;;3.85;1.40;;;11.00;99.90;;;;;;4885589;29;20518;-78
2022/12/21 08:05:39;;;;;;;3.75;1.20;;;11.00;99.90;;;;;;4888490;29;20049;-78
2022/12/21 08:08:06;;;;;;;1.58;1.02;;;11.00;99.90;;;;;;4890698;29;20044;-77
2022/12/21 08:10:33;;;;;;;6.43;1.20;;;11.00;99.90;;;;;;4892406;29;20053;-78
2022/12/21 08:13:00;;;;;;;1.75;1.00;;;11.10;99.90;;;;;;4884472;29;20055;-79
2022/12/21 08:15:27;;;;;;;5.28;2.25;;;11.00;99.90;;;;;;4894366;29;20057;-77
2022/12/21 08:17:53;;;;;;;3.78;0.88;;;11.00;99.90;;;;;;4887942;29;20051;-77
2022/12/21 08:20:20;;;;;;;1.75;0.73;;;11.00;99.90;;;;;;4893402;29;20056;-79
2022/12/21 08:22:49;;;;;;;1.40;0.98;;;11.10;99.90;;;;;;4892612;29;20451;-77
2022/12/21 08:25:15;;;;;;;4.38;1.42;;;11.10;99.90;;;;;;4893505;29;20135;-78
2022/12/21 08:27:42;;;;;;;1.65;0.98;;;11.10;99.90;;;;;;4895170;29;20072;-78
2022/12/21 08:30:09;;;;;;;3.25;1.10;;;11.10;99.90;;;;;;4897067;29;20163;-80
2022/12/21 08:32:36;;;;;;;1.70;0.90;;;11.10;99.90;;;;;;4891081;29;20065;-78
2022/12/21 08:35:03;;;;;;;3.40;1.23;;;11.20;99.90;;;;;;4892896;29;20095;-80
2022/12/21 08:37:30;;;;;;;3.72;1.20;;;11.20;99.90;;;;;;4896655;29;20566;-80
2022/12/21 08:39:57;;;;;;;2.83;1.17;;;11.20;99.90;;;;;;4894397;29;20084;-80
2022/12/21 08:42:23;;;;;;;3.53;1.48;;;11.20;99.90;;;;;;4896951;29;20058;-80
2022/12/21 08:44:57;;;;;;;1.65;1.10;;;11.20;99.90;;;;;;4889433;29;20055;-79
2022/12/21 08:47:24;;;;;;;2.90;1.48;;;11.20;99.90;;;;;;4891692;29;20439;-80
2022/12/21 08:49:50;;;;;;;2.08;1.10;;;11.30;99.90;;;;;;4891751;29;20101;-80
2022/12/21 08:52:17;;;;;;;4.65;1.40;;;11.30;99.90;;;;;;4890865;29;20045;-79
2022/12/21 08:54:44;;;;;;;2.63;1.15;;;11.30;99.90;;;;;;4891136;29;20174;-80
2022/12/21 08:57:10;;;;;;;5.70;3.20;;;11.30;99.90;;;;;;4892248;29;20049;-79
2022/12/21 08:59:37;;;;;;;5.38;1.17;;;11.30;99.90;;;;;;4889206;29;20053;-80
2022/12/21 09:02:10;;;;;;;5.90;1.50;;;11.40;99.90;;;;;;4890795;29;20063;-80
2022/12/21 09:04:37;;;;;;;3.40;1.90;;;11.40;99.90;;;;;;4887253;29;20056;-79
2022/12/21 09:07:03;;;;;;;2.60;1.52;;;11.50;99.90;;;;;;4895349;29;20144;-79
2022/12/21 09:09:30;;;;;;;4.03;1.23;;;11.50;99.90;;;;;;4889571;29;20059;-79
2022/12/21 09:11:57;;;;;;;3.60;1.40;;;11.50;99.90;;;;;;4893102;29;20095;-78
2022/12/21 09:14:23;;;;;;;2.92;1.10;;;11.60;99.90;;;;;;4896598;29;20080;-78
2022/12/21 09:16:50;;;;;;;6.13;2.20;;;11.60;99.90;;;;;;4886747;29;20422;-78
2022/12/21 09:19:17;;;;;;;2.35;1.52;;;11.70;99.90;;;;;;4886555;29;20071;-78
2022/12/21 09:21:44;;;;;;;4.55;2.38;;;11.70;99.90;;;;;;4888132;29;20143;-77
2022/12/21 09:24:11;;;;;;;3.35;2.05;;;11.80;99.90;;;;;;4895817;29;20514;-77
2022/12/21 09:26:38;;;;;;;3.15;1.55;;;11.80;99.90;;;;;;4886744;29;20529;-77
2022/12/21 09:29:04;;;;;;;3.22;1.40;;;11.90;99.90;;;;;;4894961;29;20081;-78
2022/12/21 09:31:31;;;;;;;3.30;1.30;;;11.90;99.90;;;;;;4886961;29;20139;-78
2022/12/21 09:33:58;;;;;;;1.33;0.90;;;12.00;99.90;;;;;;4884336;29;20052;-78
2022/12/21 09:36:25;;;;;;;6.10;1.73;;;12.00;99.90;;;;;;4886588;29;20548;-78
2022/12/21 09:38:53;;;;;;;2.97;1.10;;;12.00;99.90;;;;;;4883413;29;20451;-77
2022/12/21 09:41:45;;;;;;;2.58;1.08;;;12.10;99.90;;;;;;4886551;29;20584;-77
2022/12/21 09:44:18;;;;;;;3.13;1.42;;;12.10;99.90;;;;;;4893418;29;20243;-78
2022/12/21 09:46:49;;;;;;;2.15;1.02;;;12.10;99.90;;;;;;4894794;29;20053;-78
2022/12/21 09:49:20;;;;;;;4.10;1.60;;;12.10;99.90;;;;;;4892160;29;20095;-79
2022/12/21 09:51:55;;;;;;;5.45;1.60;;;12.20;99.90;;;;;;4887350;29;20485;-78
2022/12/21 09:54:43;;;;;;;2.75;0.95;;;12.20;99.90;;;;;;4895528;29;20088;-79
2022/12/21 09:57:13;;;;;;;2.92;1.33;;;12.20;99.90;;;;;;4890308;29;20048;-79
2022/12/21 09:59:40;;;;;;;1.95;1.10;;;12.20;99.90;;;;;;4895875;29;20998;-77
2022/12/21 10:02:19;;;;;;;1.77;0.95;;;12.20;99.90;;;;;;4891815;29;20568;-79
2022/12/21 10:05:31;;;;;;;2.20;1.00;;;12.20;99.90;;;;;;4897846;29;20048;-78
2022/12/21 10:08:20;;;;;;;2.85;1.90;;;12.20;99.90;;;;;;4893532;29;20068;-78
2022/12/21 10:11:23;;;;;;;2.85;1.30;;;12.20;99.90;;;;;;4888691;29;20652;-78
2022/12/21 10:14:01;;;;;;;3.15;1.33;;;12.20;99.90;;;;;;4848022;29;20550;-77
2022/12/21 10:16:45;;;;;;;3.80;2.05;;;12.20;99.90;;;;;;4900642;29;20064;-78
2022/12/21 10:20:09;;;;;;;3.00;1.75;;;12.20;99.90;;;;;;4898289;29;20057;-79
2022/12/21 10:22:44;;;;;;;7.75;3.08;;;12.30;99.90;;;;;;4891653;29;20045;-78
2022/12/21 10:25:27;;;;;;;3.08;1.60;;;12.30;99.90;;;;;;4886227;29;20148;-79
2022/12/21 10:28:14;;;;;;;1.30;0.98;;;12.30;99.90;;;;;;4885999;29;20067;-78
2022/12/21 10:30:48;;;;;;;0.95;0.80;;;12.20;99.90;;;;;;4889587;29;20430;-79
2022/12/21 10:33:16;;;;;;;1.55;1.08;;;12.30;99.90;;;;;;4885592;29;20414;-79
2022/12/21 10:35:43;;;;;;;4.15;1.02;;;12.20;99.90;;;;;;4894699;29;20490;-78
2022/12/21 10:38:14;;;;;;;2.40;0.65;;;12.20;99.90;;;;;;4888726;29;20091;-79
2022/12/21 10:40:43;;;;;;;1.88;0.85;;;12.20;99.90;;;;;;4891180;29;20088;-78
2022/12/21 10:43:11;;;;;;;3.92;1.17;;;12.20;99.90;;;;;;4888643;29;20135;-78
2022/12/21 10:45:38;;;;;;;1.10;0.82;;;12.20;99.90;;;;;;4898163;29;20064;-77
2022/12/21 10:48:05;;;;;;;0.88;0.70;;;12.20;99.90;;;;;;4891016;29;20128;-78
2022/12/21 10:50:33;;;;;;;1.02;0.70;;;12.20;99.90;;;;;;4887939;29;20064;-78
2022/12/21 10:53:22;;;;;;;2.88;1.13;;;12.10;99.90;;;;;;4895158;29;20048;-77
2022/12/21 10:55:51;;;;;;;0.95;0.80;;;12.10;99.90;;;;;;4892474;29;20454;-78
2022/12/21 10:58:21;;;;;;;1.60;0.82;;;12.10;99.90;;;;;;4895354;29;20080;-78
2022/12/21 11:01:02;;;;;;;;;;;12.00;99.90;;;;;;4890649;29;20143;-79
2022/12/21 11:03:31;;;;;;;3.92;1.38;;;12.00;99.90;;;;;;4881790;29;19939;-78
2022/12/21 11:06:12;;;;;;;3.13;0.82;;;12.00;99.90;;;;;;4893019;29;20510;-79
2022/12/21 11:08:52;;;;;;;4.60;0.90;;;12.00;99.90;;;;;;4887842;29;20139;-78
2022/12/21 11:11:37;;;;;;;2.33;1.08;;;12.00;99.90;;;;;;4894609;29;20048;-79
2022/12/21 11:14:14;;;;;;;3.05;0.90;;;12.10;99.90;;;;;;4891934;29;20094;-79
2022/12/21 11:16:42;;;;;;;1.55;0.80;;;12.10;99.90;;;;;;4887445;29;20090;-79
2022/12/21 11:19:12;;;;;;;2.95;1.10;;;12.20;99.90;;;;;;4892684;29;20052;-78
2022/12/21 11:21:39;;;;;;;;;;;12.20;99.90;;;;;;4898117;29;20088;-78
2022/12/21 11:24:14;;;;;;;1.67;1.10;;;12.30;99.90;;;;;;4896283;29;19924;-78
2022/12/21 11:26:45;;;;;;;2.05;1.02;;;12.30;99.90;;;;;;4890047;29;20048;-78
2022/12/21 11:29:49;;;;;;;2.55;1.25;;;12.30;99.90;;;;;;4903432;29;20136;-79
2022/12/21 11:32:18;;;;;;;3.17;1.00;;;12.30;99.90;;;;;;4896379;29;20535;-78
2022/12/21 11:34:52;;;;;;;2.65;1.20;;;12.30;99.90;;;;;;4894994;29;20511;-78
2022/12/21 11:37:35;;;;;;;5.25;2.90;;;12.30;99.90;;;;;;4893689;29;20063;-78
2022/12/21 11:40:11;;;;;;;2.78;2.13;;;12.30;99.90;;;;;;4886736;29;20056;-78
2022/12/21 11:43:00;;;;;;;1.98;1.25;;;12.40;99.90;;;;;;4897510;29;20104;-77
2022/12/21 11:46:10;;;;;;;1.60;1.10;;;12.30;99.90;;;;;;4895508;29;20113;-77
2022/12/21 11:49:05;;;;;;;1.75;1.00;;;12.30;99.90;;;;;;4890603;29;20396;-77
2022/12/21 11:51:45;;;;;;;3.95;1.10;;;12.30;99.90;;;;;;4888599;29;20057;-77
2022/12/21 11:54:52;;;;;;;1.88;0.90;;;12.30;99.90;;;;;;4890214;29;20083;-79
2022/12/21 11:57:52;;;;;;;2.90;1.10;;;12.30;99.90;;;;;;4896829;29;20060;-79
2022/12/21 12:00:24;;;;;;;1.40;1.10;;;12.30;99.90;;;;;;4886520;29;20132;-78
2022/12/21 12:03:43;;;;;;;2.67;0.70;;;12.30;99.90;;;;;;4894259;29;20112;-79
2022/12/21 12:06:35;;;;;;;0.73;0.63;;;12.20;99.90;;;;;;4862757;29;20129;-79
2022/12/21 12:09:27;;;;;;;2.45;0.68;;;12.20;99.90;;;;;;4902526;29;20072;-79
2022/12/21 12:12:15;;;;;;;2.78;1.00;;;12.20;99.90;;;;;;4888917;29;20085;-78
2022/12/21 12:14:47;;;;;;;1.88;0.65;;;12.30;99.90;;;;;;4889753;29;20052;-78
2022/12/21 12:17:42;;;;;;;1.80;1.05;;;12.30;99.90;;;;;;4879905;29;20053;-78
2022/12/21 12:20:27;;;;;;;1.75;0.90;;;12.30;99.90;;;;;;4878659;29;20227;-78
2022/12/21 12:23:10;;;;;;;1.45;0.90;;;12.30;99.90;;;;;;4889594;29;20052;-78
2022/12/21 12:25:42;;;;;;;2.28;1.10;;;12.40;99.90;;;;;;4888333;29;20497;-78
2022/12/21 12:28:55;;;;;;;5.05;1.00;;;12.50;99.90;;;;;;4890619;29;20052;-78
2022/12/21 12:31:28;;;;;;;2.00;0.80;;;12.60;99.90;;;;;;4841807;29;20582;-78
2022/12/21 12:34:42;;;;;;;1.55;1.00;;;12.60;99.90;;;;;;4892487;29;20112;-78
2022/12/21 12:37:23;;;;;;;5.72;1.05;;;12.60;99.90;;;;;;4885756;29;20059;-78
2022/12/21 12:40:28;;;;;;;5.88;1.23;;;12.70;99.90;;;;;;4890704;29;20131;-79
2022/12/21 12:43:02;;;;;;;5.10;1.08;;;12.70;99.90;;;;;;4896198;29;20071;-78
2022/12/21 12:45:47;;;;;;;2.97;1.10;;;12.70;99.90;;;;;;4891553;29;20044;-79
2022/12/21 12:48:35;;;;;;;5.07;1.45;;;12.80;99.90;;;;;;4889161;29;20112;-78
2022/12/21 12:51:20;;;;;;;3.10;1.15;;;12.80;99.90;;;;;;4892184;29;20135;-78
2022/12/21 12:54:06;;;;;;;2.78;1.30;;;12.80;99.90;;;;;;4894495;29;20055;-78
2022/12/21 12:56:57;;;;;;;2.15;1.35;;;12.90;99.90;;;;;;4884037;29;20057;-77
2022/12/21 12:59:34;;;;;;;1.48;1.08;;;12.80;99.90;;;;;;4890767;29;20092;-77
2022/12/21 13:02:32;;;;;;;2.40;1.10;;;12.90;99.90;;;;;;4889038;29;20074;-78
2022/12/21 13:05:16;;;;;;;1.80;1.02;;;12.90;99.90;;;;;;4890180;29;20080;-78
2022/12/21 13:08:14;;;;;;;4.47;1.27;;;12.90;99.90;;;;;;4895808;29;20052;-78
2022/12/21 13:11:05;;;;;;;3.42;1.40;;;12.90;99.90;;;;;;4888935;29;20084;-78
2022/12/21 13:13:57;;;;;;;2.15;1.70;;;12.90;99.90;;;;;;4887346;29;20060;-78
2022/12/21 13:16:31;;;;;;;5.05;1.77;;;12.80;99.90;;;;;;4890482;29;20057;-78
2022/12/21 13:19:02;;;;;;;3.55;1.25;;;12.80;99.90;;;;;;4891121;29;20061;-77
2022/12/21 13:21:31;;;;;;;1.65;0.90;;;12.80;99.90;;;;;;4894330;29;20052;-79
2022/12/21 13:24:35;;;;;;;2.67;1.35;;;12.70;99.90;;;;;;4890729;29;20056;-78
2022/12/21 13:27:07;;;;;;;4.40;1.45;;;12.70;99.90;;;;;;4884732;29;20404;-78
2022/12/21 13:29:45;;;;;;;0.70;0.70;;;12.70;99.90;;;;;;4891125;29;20144;-78
2022/12/21 13:32:15;;;;;;;4.15;1.08;;;12.70;99.90;;;;;;4883957;29;20479;-78
2022/12/21 13:34:56;;;;;;;1.38;1.00;;;12.70;99.90;;;;;;4895553;29;20143;-78
2022/12/21 13:37:23;;;;;;;2.30;0.90;;;12.80;99.90;;;;;;4893334;29;20465;-78
2022/12/21 13:40:01;;;;;;;2.55;1.70;;;12.80;99.90;;;;;;4892144;29;20060;-77
2022/12/21 13:42:39;;;;;;;1.27;0.95;;;12.80;99.90;;;;;;4891779;29;20048;-78
2022/12/21 13:45:34;;;;;;;1.63;0.98;;;12.80;99.90;;;;;;4895178;29;20052;-78
2022/12/21 13:48:02;;;;;;;2.45;1.38;;;12.80;99.90;;;;;;4891820;29;20502;-78
2022/12/21 13:50:37;;;;;;;2.88;1.02;;;12.80;99.90;;;;;;4892094;29;20131;-78
2022/12/21 13:53:37;;;;;;;1.70;1.00;;;12.90;99.90;;;;;;4885808;29;20049;-78
2022/12/21 13:56:20;;;;;;;3.70;1.25;;;12.90;99.90;;;;;;4888155;29;20057;-76
2022/12/21 13:58:55;;;;;;;2.78;1.20;;;12.80;99.90;;;;;;4893277;29;20077;-78
2022/12/21 14:01:47;;;;;;;4.43;0.80;;;12.80;99.90;;;;;;4888599;29;20056;-78
2022/12/21 14:04:45;;;;;;;2.85;1.63;;;12.70;99.90;;;;;;4881832;29;20550;-78
2022/12/21 14:07:36;;;;;;;2.30;1.00;;;12.70;99.90;;;;;;4885974;29;20207;-77
2022/12/21 14:10:31;;;;;;;3.63;0.93;;;12.60;99.90;;;;;;4899453;29;20052;-78
2022/12/21 14:13:26;;;;;;;2.30;1.27;;;12.50;99.90;;;;;;4899603;29;20496;-78
2022/12/21 14:16:03;;;;;;;3.05;1.20;;;12.50;99.90;;;;;;4897560;29;20484;-77
2022/12/21 14:18:35;;;;;;;1.33;0.77;;;12.50;99.90;;;;;;4894056;29;20076;-79
2022/12/21 14:21:19;;;;;;;1.25;0.95;;;12.40;99.90;;;;;;4891795;29;20085;-78
2022/12/21 14:24:11;;;;;;;1.33;0.90;;;12.40;99.90;;;;;;4897854;29;20510;-77
2022/12/21 14:27:01;;;;;;;2.50;0.82;;;12.30;99.90;;;;;;4888811;29;20080;-77
2022/12/21 14:29:40;;;;;;;2.08;1.13;;;12.30;99.90;;;;;;4897718;29;20049;-78
2022/12/21 14:32:09;;;;;;;3.33;0.90;;;12.30;99.90;;;;;;4889775;29;20080;-78
2022/12/21 14:34:48;;;;;;;5.60;1.00;;;12.30;99.90;;;;;;4894538;29;20116;-78
2022/12/21 14:37:15;;;;;;;3.60;1.30;;;12.30;99.90;;;;;;4897737;29;20121;-77
2022/12/21 14:39:45;;;;;;;3.22;0.80;;;12.30;99.90;;;;;;4899456;29;20081;-78
2022/12/21 14:42:30;;;;;;;1.50;0.98;;;12.30;99.90;;;;;;4892026;29;20087;-78
2022/12/21 14:45:11;;;;;;;2.17;1.10;;;12.30;99.90;;;;;;4892901;29;20053;-79
2022/12/21 14:48:00;;;;;;;1.77;1.20;;;12.30;99.90;;;;;;4889548;29;20130;-78
2022/12/21 14:50:27;;;;;;;3.47;1.58;;;12.30;99.90;;;;;;4891672;29;20091;-78
2022/12/21 14:52:57;;;;;;;3.10;1.45;;;12.30;99.90;;;;;;4892405;29;20060;-78
2022/12/21 14:55:35;;;;;;;2.83;1.50;;;12.30;99.90;;;;;;4896312;29;20053;-78
2022/12/21 14:58:14;;;;;;;3.35;1.67;;;12.30;99.90;;;;;;4895153;29;20143;-80
2022/12/21 15:01:13;;;;;;;6.57;1.48;;;12.30;99.90;;;;;;4898989;29;20088;-78
2022/12/21 15:03:40;;;;;;;3.13;1.20;;;12.30;99.90;;;;;;4887943;29;20455;-78
2022/12/21 15:06:09;;;;;;;1.98;0.93;;;12.30;99.90;;;;;;4898710;29;20053;-78
2022/12/21 15:08:42;;;;;;;3.05;1.25;;;12.30;99.90;;;;;;4886725;29;20173;-78
2022/12/21 15:11:23;;;;;;;7.22;1.80;;;12.20;99.90;;;;;;4892697;29;20519;-78
2022/12/21 15:13:53;;;;;;;3.83;1.70;;;12.30;99.90;;;;;;4890435;29;20073;-78
2022/12/21 15:16:24;;;;;;;2.00;1.45;;;12.20;99.90;;;;;;4889173;29;20482;-78
2022/12/21 15:18:52;;;;;;;1.27;1.00;;;12.20;99.90;;;;;;4898689;29;20525;-77
2022/12/21 15:21:37;;;;;;;1.30;1.20;;;12.20;99.90;;;;;;4897642;29;20460;-77
2022/12/21 15:24:06;;;;;;;3.10;1.70;;;12.20;99.90;;;;;;4894809;29;20057;-77
2022/12/21 15:26:45;;;;;;;3.00;1.50;;;12.20;99.90;;;;;;4889613;29;20495;-78
2022/12/21 15:29:21;;;;;;;2.03;1.25;;;12.10;99.90;;;;;;4889470;29;20096;-77
2022/12/21 15:31:49;;;;;;;5.90;2.70;;;12.10;99.90;;;;;;4902299;29;20056;-78
2022/12/21 15:34:30;;;;;;;3.70;1.63;;;12.10;99.90;;;;;;4908561;29;20116;-77
2022/12/21 15:37:09;;;;;;;3.60;1.73;;;12.10;99.90;;;;;;4904909;29;20093;-78
2022/12/21 15:39:39;;;;;;;2.50;1.48;;;12.10;99.90;;;;;;4890647;29;20135;-78
2022/12/21 15:42:17;;;;;;;2.35;1.27;;;12.10;99.90;;;;;;4895025;29;20049;-78
2022/12/21 15:44:57;;;;;;;3.25;1.60;;;12.10;99.90;;;;;;4891515;29;20052;-78
2022/12/21 15:47:44;;;;;;;1.83;1.33;;;12.10;99.90;;;;;;4892834;29;20067;-78
2022/12/21 15:50:17;;;;;;;2.63;1.67;;;12.00;99.90;;;;;;4895191;29;20418;-78
2022/12/21 15:52:54;;;;;;;3.08;1.63;;;12.00;99.90;;;;;;4888475;29;20388;-77
2022/12/21 15:55:23;;;;;;;2.30;1.42;;;12.00;99.90;;;;;;4896800;29;20467;-77
2022/12/21 15:58:06;;;;;;;2.95;2.13;;;12.00;99.90;;;;;;4892253;29;20091;-77
2022/12/21 16:01:05;;;;;;;1.80;1.50;;;12.00;99.90;;;;;;4887433;29;20474;-77
2022/12/21 16:03:35;;;;;;;2.30;1.88;;;11.90;99.90;;;;;;4877166;29;20060;-77
2022/12/21 16:06:26;;;;;;;2.80;2.00;;;11.90;99.90;;;;;;4881910;29;20105;-80
2022/12/21 16:08:54;;;;;;;1.67;0.80;;;11.90;99.90;;;;;;4890673;29;20179;-77
2022/12/21 16:11:31;;;;;;;1.25;0.98;;;11.90;99.90;;;;;;4891424;29;20052;-78
2022/12/21 16:14:23;;;;;;;4.20;2.03;;;11.90;99.90;;;;;;4899212;29;20049;-77
2022/12/21 16:16:58;;;;;;;3.95;1.40;;;11.90;99.90;;;;;;4889951;29;20504;-78
2022/12/21 16:19:27;;;;;;;5.75;2.20;;;11.90;99.90;;;;;;4885867;29;20526;-78
2022/12/21 16:22:00;;;;;;;6.28;2.17;;;11.80;99.90;;;;;;4893170;29;20055;-79
2022/12/21 16:24:28;;;;;;;2.80;1.70;;;11.80;99.90;;;;;;4890382;29;20048;-80
2022/12/21 16:26:57;;;;;;;2.90;1.45;;;11.90;99.90;;;;;;4888825;29;20048;-79
2022/12/21 16:29:26;;;;;;;6.03;1.40;;;11.80;99.90;;;;;;4892071;29;20422;-79
2022/12/21 16:31:54;;;;;;;4.57;1.38;;;11.80;99.90;;;;;;4888233;29;20056;-79
2022/12/21 16:34:31;;;;;;;3.13;1.48;;;11.80;99.90;;;;;;4891969;29;20510;-79
2022/12/21 16:37:18;;;;;;;1.85;1.30;;;11.80;99.90;;;;;;4887533;29;20052;-79
2022/12/21 16:39:55;;;;;;;4.38;1.38;;;11.80;99.90;;;;;;4891538;29;20427;-78
2022/12/21 16:42:23;;;;;;;2.58;1.30;;;11.80;99.90;;;;;;4893980;29;20111;-78
2022/12/21 16:44:50;;;;;;;4.00;1.85;;;11.80;99.90;;;;;;4894339;29;20550;-79
2022/12/21 16:47:23;;;;;;;3.20;1.67;;;11.80;99.90;;;;;;4889049;29;20040;-78
2022/12/21 16:49:51;;;;;;;4.75;1.73;;;11.80;99.90;;;;;;4891352;29;20095;-80
2022/12/21 16:52:44;;;;;;;2.72;1.23;;;11.70;99.90;;;;;;4889433;29;20076;-79
2022/12/21 16:55:27;;;;;;;2.70;1.15;;;11.80;99.90;;;;;;4890711;29;20133;-79
2022/12/21 16:57:57;;;;;;;3.08;1.50;;;11.80;99.90;;;;;;4895863;29;20113;-80
2022/12/21 17:00:29;;;;;;;;;;;11.80;99.90;;;;;;4896238;29;20193;-78
2022/12/21 17:03:26;;;;;;;3.95;1.65;;;11.80;99.90;;;;;;4888519;29;19938;-78
2022/12/21 17:05:53;;;;;;;1.67;1.30;;;11.80;99.90;;;;;;4890276;29;20551;-78
2022/12/21 17:08:34;;;;;;;3.60;1.92;;;11.80;99.90;;;;;;4884871;29;20091;-78
2022/12/21 17:11:05;;;;;;;1.90;1.42;;;11.80;99.90;;;;;;4890543;29;20048;-78
2022/12/21 17:13:36;;;;;;;1.83;1.73;;;11.80;99.90;;;;;;4890836;29;20131;-78
2022/12/21 17:16:18;;;;;;;2.63;1.90;;;11.80;99.90;;;;;;4886672;29;20084;-79
2022/12/21 17:19:14;;;;;;;2.47;1.70;;;11.80;99.90;;;;;;4888955;29;20053;-79
2022/12/21 17:21:53;;;;;;;4.82;1.38;;;11.80;99.90;;;;;;4892206;29;20048;-79
2022/12/21 17:24:23;;;;;;;1.98;1.42;;;11.80;99.90;;;;;;4890892;29;20064;-78
2022/12/21 17:27:00;;;;;;;1.80;1.13;;;11.80;99.90;;;;;;4890462;29;20048;-78
2022/12/21 17:29:27;;;;;;;1.25;0.90;;;11.80;99.90;;;;;;4894080;29;20093;-78
2022/12/21 17:31:53;;;;;;;3.35;1.55;;;11.80;99.90;;;;;;4886396;29;20131;-79
2022/12/21 17:34:23;;;;;;;2.25;1.45;;;11.80;99.90;;;;;;4894139;29;20052;-78
2022/12/21 17:36:50;;;;;;;1.92;1.30;;;11.80;99.90;;;;;;4891184;29;20091;-78
2022/12/21 17:39:19;;;;;;;3.10;1.20;;;11.80;99.90;;;;;;4894486;29;20121;-79
2022/12/21 17:41:46;;;;;;;2.47;1.10;;;11.80;99.90;;;;;;4891185;29;20127;-79
2022/12/21 17:44:14;;;;;;;3.25;1.63;;;11.70;99.90;;;;;;4891912;29;20057;-79
2022/12/21 17:47:00;;;;;;;2.42;1.40;;;11.70;99.90;;;;;;4897514;29;20045;-80
2022/12/21 17:49:27;;;;;;;1.38;1.10;;;11.70;99.90;;;;;;4894778;29;20055;-78
2022/12/21 17:51:54;;;;;;;2.15;1.35;;;11.60;99.90;;;;;;4892897;29;20128;-80
2022/12/21 17:54:23;;;;;;;2.90;1.42;;;11.60;99.90;;;;;;4889119;29;20087;-79
2022/12/21 17:56:50;;;;;;;4.78;1.42;;;11.60;99.90;;;;;;4891875;29;20044;-79
2022/12/21 17:59:17;;;;;;;6.38;2.00;;;11.60;99.90;;;;;;4885574;29;20073;-78
2022/12/21 18:01:43;;;;;;;2.58;1.17;;;11.60;99.90;;;;;;4891860;29;20123;-79
2022/12/21 18:04:12;;;;;;;2.28;1.23;;;11.60;99.90;;;;;;4887905;29;20503;-79
2022/12/21 18:06:39;;;;;;;5.57;2.42;;;11.60;99.90;;;;;;4889409;29;21763;-79
2022/12/21 18:09:06;;;;;;;1.85;1.50;;;11.70;99.90;;;;;;4884820;29;20132;-79
2022/12/21 18:11:33;;;;;;;2.45;1.33;;;11.70;99.90;;;;;;4888266;29;20057;-79
2022/12/21 18:13:59;;;;;;;1.05;0.73;;;11.70;99.90;;;;;;4890285;29;20075;-79
2022/12/21 18:16:37;;;;;;;4.47;1.23;;;11.70;99.90;;;;;;4890406;29;20483;-79
2022/12/21 18:19:06;;;;;;;2.22;1.10;;;11.70;99.90;;;;;;4889514;29;20053;-79
2022/12/21 18:21:33;;;;;;;1.48;1.00;;;11.70;99.90;;;;;;4894539;29;20049;-79
2022/12/21 18:24:01;;;;;;;2.28;1.30;;;11.70;99.90;;;;;;4890197;29;20085;-79
2022/12/21 18:26:27;;;;;;;2.47;1.23;;;11.70;99.90;;;;;;4890130;29;20123;-79
2022/12/21 18:28:56;;;;;;;3.10;1.10;;;11.70;99.90;;;;;;4891779;29;20049;-79
2022/12/21 18:31:27;;;;;;;1.52;0.88;;;11.70;99.90;;;;;;4894314;29;20051;-80
2022/12/21 18:33:57;;;;;;;1.92;1.25;;;11.70;99.90;;;;;;4885813;29;20089;-80
2022/12/21 18:36:29;;;;;;;1.70;1.33;;;11.60;99.90;;;;;;4905237;29;20041;-79
2022/12/21 18:38:56;;;;;;;1.60;1.50;;;11.60;99.90;;;;;;4888788;29;20135;-79
2022/12/21 18:41:25;;;;;;;1.67;1.30;;;11.60;99.90;;;;;;4896734;29;20055;-78
2022/12/21 18:43:52;;;;;;;2.17;1.08;;;11.50;99.90;;;;;;4891828;29;20061;-78
2022/12/21 18:46:29;;;;;;;3.80;1.02;;;11.50;99.90;;;;;;4890594;29;20044;-80
2022/12/21 18:49:04;;;;;;;2.35;1.00;;;11.50;99.90;;;;;;4884784;29;20060;-79
2022/12/21 18:51:38;;;;;;;2.15;1.13;;;11.50;99.90;;;;;;4888790;29;20072;-79
2022/12/21 18:54:14;;;;;;;4.05;1.20;;;11.50;99.90;;;;;;4884171;29;20083;-78
2022/12/21 18:56:46;;;;;;;3.83;1.10;;;11.50;99.90;;;;;;4889516;29;20124;-79
2022/12/21 18:59:12;;;;;;;2.30;1.00;;;11.50;99.90;;;;;;4894460;29;20078;-78
2022/12/21 19:01:40;;;;;;;4.25;1.50;;;11.60;99.90;;;;;;4892096;29;20080;-79
2022/12/21 19:04:28;;;;;;;1.90;1.48;;;11.60;99.90;;;;;;4890961;29;20605;-79
2022/12/21 19:06:55;;;;;;;4.30;1.40;;;11.60;99.90;;;;;;4893469;29;20049;-79
2022/12/21 19:09:23;;;;;;;4.05;2.00;;;11.60;99.90;;;;;;4895276;29;20067;-79
2022/12/21 19:11:50;;;;;;;2.75;1.40;;;11.60;99.90;;;;;;4891334;29;20055;-78
2022/12/21 19:14:19;;;;;;;2.88;1.30;;;11.70;99.90;;;;;;4897118;29;20157;-79
2022/12/21 19:16:49;;;;;;;1.40;1.20;;;11.60;99.90;;;;;;4892983;29;20053;-78
2022/12/21 19:19:20;;;;;;;2.20;1.40;;;11.60;99.90;;;;;;4897650;29;20060;-78
2022/12/21 19:21:52;;;;;;;2.75;1.23;;;11.70;99.90;;;;;;4890069;29;20140;-79
2022/12/21 19:24:28;;;;;;;2.42;1.17;;;11.70;99.90;;;;;;4897022;29;20053;-78
2022/12/21 19:26:55;;;;;;;2.92;1.13;;;11.70;99.90;;;;;;4893470;29;20422;-79
2022/12/21 19:29:25;;;;;;;5.45;1.00;;;11.70;99.90;;;;;;4888412;29;20055;-79
2022/12/21 19:31:52;;;;;;;3.10;1.38;;;11.70;99.90;;;;;;4894997;29;20132;-79
2022/12/21 19:34:19;;;;;;;1.45;1.10;;;11.70;99.90;;;;;;4889969;29;20105;-78
2022/12/21 19:36:49;;;;;;;1.27;0.98;;;11.70;99.90;;;;;;4894978;29;20044;-78
2022/12/21 19:39:39;;;;;;;4.35;1.30;;;11.70;99.90;;;;;;4888865;29;20052;-79
2022/12/21 19:42:11;;;;;;;1.52;0.90;;;11.70;99.90;;;;;;4893902;29;20057;-79
2022/12/21 19:44:37;;;;;;;2.20;1.00;;;11.70;99.90;;;;;;4909569;29;20048;-79